Terminal Aerodrome Forecast
Issued by NWS

Home | Current Version | Previous Version | Text Only | Print | Product List | Glossary On
Versions: 1 2 3 4 5 6 7 8 9 10 11 12 13 14 15 16 17 18 19 20 21 22 23 24 25 26 27 28 29 30 31 32 33 34 35 36
000
FTUS45 KBOU 282320
TAFBJC
TAF
KBJC 282320Z 2900/2924 09010KT P6SM FEW120
     FM290200 05008G15KT P6SM FEW220
     FM290400 33008G18KT P6SM FEW220
     FM290600 23006KT P6SM FEW220
     FM291600 VRB06KT P6SM SCT080 BKN120
     FM291900 05006KT P6SM SCT080 BKN120=

USA.gov is the U.S. government's official web portal to all federal, state and local government web resources and services.